sensor_id;sensor_type;location;lat;lon;timestamp;pressure;altitude;pressure_sealevel;temperature;humidity
78679;BME280;67994;59.334;13.528;2023-05-10T00:00:00;101200.0;;;10.0;53.9
78679;BME280;67994;59.334;13.528;2023-05-10T00:01:00;101200.0;;;10.1;53.6
78679;BME280;67994;59.334;13.528;2023-05-10T00:02:00;101200.0;;;10.0;54.0
78679;BME280;67994;59.334;13.528;2023-05-10T00:03:00;101200.0;;;10.0;54.0
78679;BME280;67994;59.334;13.528;2023-05-10T00:04:00;101200.0;;;10.0;53.8
78679;BME280;67994;59.334;13.528;2023-05-10T00:05:00;101200.0;;;10.0;53.8
78679;BME280;67994;59.334;13.528;2023-05-10T00:06:00;101200.0;;;9.9;54.3
78679;BME280;67994;59.334;13.528;2023-05-10T00:07:00;101200.0;;;9.9;54.3
78679;BME280;67994;59.334;13.528;2023-05-10T00:08:00;101200.0;;;9.9;54.4
78679;BME280;67994;59.334;13.528;2023-05-10T00:09:00;101200.0;;;9.9;54.4
78679;BME280;67994;59.334;13.528;2023-05-10T00:10:00;101200.0;;;9.7;54.9
78679;BME280;67994;59.334;13.528;2023-05-10T00:11:00;101200.0;;;9.9;54.5
78679;BME280;67994;59.334;13.528;2023-05-10T00:12:00;101200.0;;;9.9;54.3
78679;BME280;67994;59.334;13.528;2023-05-10T00:13:00;101200.0;;;10.0;54.2
78679;BME280;67994;59.334;13.528;2023-05-10T00:14:00;101200.0;;;9.8;55.4
78679;BME280;67994;59.334;13.528;2023-05-10T00:15:00;101200.0;;;9.8;55.5
78679;BME280;67994;59.334;13.528;2023-05-10T00:16:00;101200.0;;;9.7;55.7
78679;BME280;67994;59.334;13.528;2023-05-10T00:17:00;101200.0;;;9.7;55.9
78679;BME280;67994;59.334;13.528;2023-05-10T00:18:00;101200.0;;;9.7;55.8
78679;BME280;67994;59.334;13.528;2023-05-10T00:19:00;101200.0;;;9.7;55.9
78679;BME280;67994;59.334;13.528;2023-05-10T00:20:00;101200.0;;;9.7;55.9
78679;BME280;67994;59.334;13.528;2023-05-10T00:21:00;101200.0;;;9.7;56.3
78679;BME280;67994;59.334;13.528;2023-05-10T00:22:00;101200.0;;;9.7;56.3
78679;BME280;67994;59.334;13.528;2023-05-10T00:23:00;101200.0;;;9.7;56.0
78679;BME280;67994;59.334;13.528;2023-05-10T00:24:00;101200.0;;;9.8;56.1
78679;BME280;67994;59.334;13.528;2023-05-10T00:25:00;101200.0;;;9.6;56.7
78679;BME280;67994;59.334;13.528;2023-05-10T00:26:00;101200.0;;;9.5;57.0
78679;BME280;67994;59.334;13.528;2023-05-10T00:27:00;101200.0;;;9.5;57.0
78679;BME280;67994;59.334;13.528;2023-05-10T00:28:00;101200.0;;;9.6;56.9
78679;BME280;67994;59.334;13.528;2023-05-10T00:29:00;101200.0;;;9.5;57.1
78679;BME280;67994;59.334;13.528;2023-05-10T00:30:00;101200.0;;;9.6;57.1
78679;BME280;67994;59.334;13.528;2023-05-10T00:31:00;101200.0;;;9.6;56.8
78679;BME280;67994;59.334;13.528;2023-05-10T00:32:00;101200.0;;;9.7;56.6
78679;BME280;67994;59.334;13.528;2023-05-10T00:33:00;101200.0;;;9.6;57.1
78679;BME280;67994;59.334;13.528;2023-05-10T00:34:00;101200.0;;;9.6;56.8
78679;BME280;67994;59.334;13.528;2023-05-10T00:35:00;101200.0;;;9.6;57.0
78679;BME280;67994;59.334;13.528;2023-05-10T00:36:00;101200.0;;;9.6;56.9
78679;BME280;67994;59.334;13.528;2023-05-10T00:37:00;101200.0;;;9.6;56.9
78679;BME280;67994;59.334;13.528;2023-05-10T00:38:00;101200.0;;;9.6;57.2
78679;BME280;67994;59.334;13.528;2023-05-10T00:39:00;101200.0;;;9.5;57.3
78679;BME280;67994;59.334;13.528;2023-05-10T00:40:00;101200.0;;;9.5;57.1
78679;BME280;67994;59.334;13.528;2023-05-10T00:41:00;101200.0;;;9.4;57.2
78679;BME280;67994;59.334;13.528;2023-05-10T00:42:00;101200.0;;;9.5;56.9
78679;BME280;67994;59.334;13.528;2023-05-10T00:43:00;101200.0;;;9.4;57.2
78679;BME280;67994;59.334;13.528;2023-05-10T00:44:00;101200.0;;;9.5;57.0
78679;BME280;67994;59.334;13.528;2023-05-10T00:45:00;101200.0;;;9.4;57.3
78679;BME280;67994;59.334;13.528;2023-05-10T00:46:00;101200.0;;;9.5;57.3
78679;BME280;67994;59.334;13.528;2023-05-10T00:47:00;101200.0;;;9.5;57.3
78679;BME280;67994;59.334;13.528;2023-05-10T00:48:01;101200.0;;;9.5;57.0
78679;BME280;67994;59.334;13.528;2023-05-10T00:49:00;101200.0;;;9.5;57.7
78679;BME280;67994;59.334;13.528;2023-05-10T00:50:00;101200.0;;;9.4;57.7
78679;BME280;67994;59.334;13.528;2023-05-10T00:51:01;101200.0;;;9.4;57.7
78679;BME280;67994;59.334;13.528;2023-05-10T00:52:00;101200.0;;;9.4;57.7
78679;BME280;67994;59.334;13.528;2023-05-10T00:53:01;101200.0;;;9.4;57.4
78679;BME280;67994;59.334;13.528;2023-05-10T00:54:00;101200.0;;;9.5;57.5
78679;BME280;67994;59.334;13.528;2023-05-10T00:55:00;101200.0;;;9.4;57.8
78679;BME280;67994;59.334;13.528;2023-05-10T00:56:00;101200.0;;;9.4;57.6
78679;BME280;67994;59.334;13.528;2023-05-10T00:57:00;101200.0;;;9.4;57.6
78679;BME280;67994;59.334;13.528;2023-05-10T00:58:00;101200.0;;;9.5;57.2
78679;BME280;67994;59.334;13.528;2023-05-10T00:59:00;101200.0;;;9.5;57.1
78679;BME280;67994;59.334;13.528;2023-05-10T01:00:01;101200.0;;;9.4;57.6
78679;BME280;67994;59.334;13.528;2023-05-10T01:01:01;101200.0;;;9.4;57.5
78679;BME280;67994;59.334;13.528;2023-05-10T01:02:01;101200.0;;;9.4;57.5
78679;BME280;67994;59.334;13.528;2023-05-10T01:03:00;101200.0;;;9.5;57.7
78679;BME280;67994;59.334;13.528;2023-05-10T01:04:00;101200.0;;;9.5;57.7
78679;BME280;67994;59.334;13.528;2023-05-10T01:05:01;101200.0;;;9.4;58.1
78679;BME280;67994;59.334;13.528;2023-05-10T01:06:00;101200.0;;;9.3;58.4
78679;BME280;67994;59.334;13.528;2023-05-10T01:07:00;101200.0;;;9.4;58.1
78679;BME280;67994;59.334;13.528;2023-05-10T01:08:00;101200.0;;;9.4;58.0
78679;BME280;67994;59.334;13.528;2023-05-10T01:09:00;101200.0;;;9.4;57.6
78679;BME280;67994;59.334;13.528;2023-05-10T01:10:00;101200.0;;;9.3;58.2
78679;BME280;67994;59.334;13.528;2023-05-10T01:11:00;101200.0;;;9.3;58.4
78679;BME280;67994;59.334;13.528;2023-05-10T01:12:00;101200.0;;;9.3;58.4
78679;BME280;67994;59.334;13.528;2023-05-10T01:13:00;101200.0;;;9.2;58.4
78679;BME280;67994;59.334;13.528;2023-05-10T01:14:01;101200.0;;;9.2;58.2
78679;BME280;67994;59.334;13.528;2023-05-10T01:15:00;101200.0;;;9.2;57.9
78679;BME280;67994;59.334;13.528;2023-05-10T01:16:00;101200.0;;;9.3;57.7
78679;BME280;67994;59.334;13.528;2023-05-10T01:17:00;101200.0;;;9.3;57.8
78679;BME280;67994;59.334;13.528;2023-05-10T01:18:00;101200.0;;;9.2;57.8
78679;BME280;67994;59.334;13.528;2023-05-10T01:19:00;101200.0;;;9.3;57.6
78679;BME280;67994;59.334;13.528;2023-05-10T01:20:00;101200.0;;;9.2;58.0
78679;BME280;67994;59.334;13.528;2023-05-10T01:21:07;101200.0;;;9.1;58.1
78679;BME280;67994;59.334;13.528;2023-05-10T01:22:06;101200.0;;;9.2;57.9
78679;BME280;67994;59.334;13.528;2023-05-10T01:23:17;101200.0;;;9.2;58.1
78679;BME280;67994;59.334;13.528;2023-05-10T01:25:15;101200.0;;;9.2;58.0
78679;BME280;67994;59.334;13.528;2023-05-10T01:26:14;101200.0;;;9.1;58.1
78679;BME280;67994;59.334;13.528;2023-05-10T01:27:07;101200.0;;;9.3;57.8
78679;BME280;67994;59.334;13.528;2023-05-10T01:28:07;101200.0;;;9.1;58.3
78679;BME280;67994;59.334;13.528;2023-05-10T01:29:11;101200.0;;;9.1;58.3
78679;BME280;67994;59.334;13.528;2023-05-10T01:30:08;101200.0;;;9.2;58.3
78679;BME280;67994;59.334;13.528;2023-05-10T01:31:08;101200.0;;;9.1;58.6
78679;BME280;67994;59.334;13.528;2023-05-10T01:32:20;101200.0;;;9.1;58.8
78679;BME280;67994;59.334;13.528;2023-05-10T01:33:01;101200.0;;;9.1;59.1
78679;BME280;67994;59.334;13.528;2023-05-10T01:34:02;101200.0;;;9.1;58.7
78679;BME280;67994;59.334;13.528;2023-05-10T01:35:03;101200.0;;;9.1;58.7
78679;BME280;67994;59.334;13.528;2023-05-10T01:36:04;101200.0;;;9.2;58.6
78679;BME280;67994;59.334;13.528;2023-05-10T01:37:04;101200.0;;;9.2;58.6
78679;BME280;67994;59.334;13.528;2023-05-10T01:38:06;101200.0;;;9.0;58.9
78679;BME280;67994;59.334;13.528;2023-05-10T01:39:03;101200.0;;;9.1;58.5
78679;BME280;67994;59.334;13.528;2023-05-10T01:40:03;101200.0;;;9.0;58.7
78679;BME280;67994;59.334;13.528;2023-05-10T01:41:13;101200.0;;;9.0;58.7
78679;BME280;67994;59.334;13.528;2023-05-10T01:42:04;101200.0;;;9.2;57.9
78679;BME280;67994;59.334;13.528;2023-05-10T01:43:02;101200.0;;;9.1;58.0
78679;BME280;67994;59.334;13.528;2023-05-10T01:44:07;101200.0;;;9.1;57.8
78679;BME280;67994;59.334;13.528;2023-05-10T01:45:07;101200.0;;;9.1;57.9
78679;BME280;67994;59.334;13.528;2023-05-10T01:46:02;101200.0;;;9.2;57.6
78679;BME280;67994;59.334;13.528;2023-05-10T01:47:04;101200.0;;;9.2;57.6
78679;BME280;67994;59.334;13.528;2023-05-10T01:48:05;101200.0;;;9.1;57.4
78679;BME280;67994;59.334;13.528;2023-05-10T01:49:01;101200.0;;;9.1;57.3
78679;BME280;67994;59.334;13.528;2023-05-10T01:50:02;101200.0;;;9.1;57.2
78679;BME280;67994;59.334;13.528;2023-05-10T01:51:00;101200.0;;;9.1;57.1
78679;BME280;67994;59.334;13.528;2023-05-10T01:52:06;101200.0;;;9.1;57.0
78679;BME280;67994;59.334;13.528;2023-05-10T01:53:01;101200.0;;;9.2;56.7
78679;BME280;67994;59.334;13.528;2023-05-10T01:54:02;101200.0;;;9.2;56.6
78679;BME280;67994;59.334;13.528;2023-05-10T01:55:02;101200.0;;;9.2;56.4
78679;BME280;67994;59.334;13.528;2023-05-10T01:56:01;101200.0;;;9.1;57.0
78679;BME280;67994;59.334;13.528;2023-05-10T01:57:03;101200.0;;;9.2;56.8
78679;BME280;67994;59.334;13.528;2023-05-10T01:58:04;101200.0;;;9.2;56.9
78679;BME280;67994;59.334;13.528;2023-05-10T01:59:06;101200.0;;;9.2;56.9
78679;BME280;67994;59.334;13.528;2023-05-10T02:00:01;101200.0;;;9.1;57.2
78679;BME280;67994;59.334;13.528;2023-05-10T02:01:02;101200.0;;;9.1;57.1
78679;BME280;67994;59.334;13.528;2023-05-10T02:02:01;101200.0;;;9.1;57.2
78679;BME280;67994;59.334;13.528;2023-05-10T02:03:04;101200.0;;;9.1;57.2
78679;BME280;67994;59.334;13.528;2023-05-10T02:04:01;101200.0;;;9.1;57.0
78679;BME280;67994;59.334;13.528;2023-05-10T02:05:00;101200.0;;;9.0;57.4
78679;BME280;67994;59.334;13.528;2023-05-10T02:06:01;101200.0;;;9.0;57.4
78679;BME280;67994;59.334;13.528;2023-05-10T02:07:00;101200.0;;;9.1;57.2
78679;BME280;67994;59.334;13.528;2023-05-10T02:08:01;101200.0;;;9.1;57.4
78679;BME280;67994;59.334;13.528;2023-05-10T02:09:01;101200.0;;;9.1;57.4
78679;BME280;67994;59.334;13.528;2023-05-10T02:10:02;101200.0;;;9.0;57.9
78679;BME280;67994;59.334;13.528;2023-05-10T02:11:01;101200.0;;;9.1;57.3
78679;BME280;67994;59.334;13.528;2023-05-10T02:12:02;101200.0;;;9.0;57.7
78679;BME280;67994;59.334;13.528;2023-05-10T02:13:01;101200.0;;;8.9;57.9
78679;BME280;67994;59.334;13.528;2023-05-10T02:14:01;101200.0;;;8.9;57.9
78679;BME280;67994;59.334;13.528;2023-05-10T02:15:00;101200.0;;;8.9;57.7
78679;BME280;67994;59.334;13.528;2023-05-10T02:16:01;101200.0;;;9.0;57.6
78679;BME280;67994;59.334;13.528;2023-05-10T02:17:01;101200.0;;;9.0;57.8
78679;BME280;67994;59.334;13.528;2023-05-10T02:18:02;101200.0;;;9.0;57.7
78679;BME280;67994;59.334;13.528;2023-05-10T02:19:01;101200.0;;;8.9;57.7
78679;BME280;67994;59.334;13.528;2023-05-10T02:20:01;101200.0;;;8.9;57.6
78679;BME280;67994;59.334;13.528;2023-05-10T02:21:01;101200.0;;;8.9;57.6
78679;BME280;67994;59.334;13.528;2023-05-10T02:22:00;101200.0;;;8.8;57.8
78679;BME280;67994;59.334;13.528;2023-05-10T02:23:01;101200.0;;;8.8;58.0
78679;BME280;67994;59.334;13.528;2023-05-10T02:24:02;101200.0;;;8.8;58.0
78679;BME280;67994;59.334;13.528;2023-05-10T02:25:00;101200.0;;;8.7;58.0
78679;BME280;67994;59.334;13.528;2023-05-10T02:26:01;101200.0;;;8.8;57.6
78679;BME280;67994;59.334;13.528;2023-05-10T02:27:01;101200.0;;;8.8;58.0
78679;BME280;67994;59.334;13.528;2023-05-10T02:28:03;101200.0;;;8.8;57.5
78679;BME280;67994;59.334;13.528;2023-05-10T02:29:01;101200.0;;;8.8;57.9
78679;BME280;67994;59.334;13.528;2023-05-10T02:30:01;101200.0;;;8.8;57.9
78679;BME280;67994;59.334;13.528;2023-05-10T02:31:00;101200.0;;;8.8;57.7
78679;BME280;67994;59.334;13.528;2023-05-10T02:32:01;101200.0;;;8.8;57.7
78679;BME280;67994;59.334;13.528;2023-05-10T02:33:01;101200.0;;;8.8;57.6
78679;BME280;67994;59.334;13.528;2023-05-10T02:34:01;101200.0;;;8.8;57.3
78679;BME280;67994;59.334;13.528;2023-05-10T02:35:01;101200.0;;;8.8;57.3
78679;BME280;67994;59.334;13.528;2023-05-10T02:36:01;101200.0;;;8.8;57.6
78679;BME280;67994;59.334;13.528;2023-05-10T02:37:02;101200.0;;;8.8;57.7
78679;BME280;67994;59.334;13.528;2023-05-10T02:38:01;101200.0;;;8.7;57.9
78679;BME280;67994;59.334;13.528;2023-05-10T02:39:01;101200.0;;;8.8;57.6
78679;BME280;67994;59.334;13.528;2023-05-10T02:40:00;101200.0;;;8.7;57.9
78679;BME280;67994;59.334;13.528;2023-05-10T02:41:01;101200.0;;;8.7;57.9
78679;BME280;67994;59.334;13.528;2023-05-10T02:42:01;101200.0;;;8.7;57.9
78679;BME280;67994;59.334;13.528;2023-05-10T02:43:01;101200.0;;;8.8;57.7
78679;BME280;67994;59.334;13.528;2023-05-10T02:44:01;101200.0;;;8.6;58.1
78679;BME280;67994;59.334;13.528;2023-05-10T02:45:02;101200.0;;;8.6;58.1
78679;BME280;67994;59.334;13.528;2023-05-10T02:46:00;101200.0;;;8.7;58.2
78679;BME280;67994;59.334;13.528;2023-05-10T02:47:00;101200.0;;;8.7;58.0
78679;BME280;67994;59.334;13.528;2023-05-10T02:48:00;101200.0;;;8.8;58.0
78679;BME280;67994;59.334;13.528;2023-05-10T02:49:00;101200.0;;;8.7;58.3
78679;BME280;67994;59.334;13.528;2023-05-10T02:50:00;101200.0;;;8.7;58.2
78679;BME280;67994;59.334;13.528;2023-05-10T02:51:05;101200.0;;;8.7;58.1
78679;BME280;67994;59.334;13.528;2023-05-10T02:52:01;101200.0;;;8.7;58.3
78679;BME280;67994;59.334;13.528;2023-05-10T02:53:06;101200.0;;;8.8;57.8
78679;BME280;67994;59.334;13.528;2023-05-10T02:54:06;101200.0;;;8.8;57.9
78679;BME280;67994;59.334;13.528;2023-05-10T02:55:02;101200.0;;;8.8;57.7
78679;BME280;67994;59.334;13.528;2023-05-10T02:56:04;101200.0;;;8.8;57.7
78679;BME280;67994;59.334;13.528;2023-05-10T02:57:03;101200.0;;;8.8;58.0
78679;BME280;67994;59.334;13.528;2023-05-10T02:58:01;101200.0;;;8.8;58.0
78679;BME280;67994;59.334;13.528;2023-05-10T02:59:00;101200.0;;;8.8;57.9
78679;BME280;67994;59.334;13.528;2023-05-10T03:00:01;101200.0;;;8.8;57.7
78679;BME280;67994;59.334;13.528;2023-05-10T03:01:00;101200.0;;;8.8;57.8
78679;BME280;67994;59.334;13.528;2023-05-10T03:02:01;101200.0;;;8.8;57.8
78679;BME280;67994;59.334;13.528;2023-05-10T03:03:00;101200.0;;;8.8;58.0
78679;BME280;67994;59.334;13.528;2023-05-10T03:04:00;101200.0;;;8.9;58.0
78679;BME280;67994;59.334;13.528;2023-05-10T03:05:00;101200.0;;;8.9;57.7
78679;BME280;67994;59.334;13.528;2023-05-10T03:06:00;101200.0;;;8.8;57.6
78679;BME280;67994;59.334;13.528;2023-05-10T03:07:01;101200.0;;;8.9;57.8
78679;BME280;67994;59.334;13.528;2023-05-10T03:08:00;101200.0;;;8.9;57.9
78679;BME280;67994;59.334;13.528;2023-05-10T03:09:01;101200.0;;;8.9;57.7
78679;BME280;67994;59.334;13.528;2023-05-10T03:10:00;101200.0;;;8.9;57.7
78679;BME280;67994;59.334;13.528;2023-05-10T03:11:13;101200.0;;;8.9;57.8
78679;BME280;67994;59.334;13.528;2023-05-10T03:12:04;101200.0;;;8.9;58.0
78679;BME280;67994;59.334;13.528;2023-05-10T03:13:06;101200.0;;;8.9;57.9
78679;BME280;67994;59.334;13.528;2023-05-10T03:14:09;101200.0;;;8.9;57.8
78679;BME280;67994;59.334;13.528;2023-05-10T03:15:04;101200.0;;;9.0;57.4
78679;BME280;67994;59.334;13.528;2023-05-10T03:16:06;101200.0;;;8.9;58.1
78679;BME280;67994;59.334;13.528;2023-05-10T03:17:04;101200.0;;;8.9;58.0
78679;BME280;67994;59.334;13.528;2023-05-10T03:18:05;101200.0;;;8.9;57.9
78679;BME280;67994;59.334;13.528;2023-05-10T03:19:06;101200.0;;;9.0;57.9
78679;BME280;67994;59.334;13.528;2023-05-10T03:20:04;101200.0;;;8.9;58.1
78679;BME280;67994;59.334;13.528;2023-05-10T03:21:03;101200.0;;;8.9;58.1
78679;BME280;67994;59.334;13.528;2023-05-10T03:22:04;101200.0;;;9.0;58.0
78679;BME280;67994;59.334;13.528;2023-05-10T03:23:03;101200.0;;;9.0;58.0
78679;BME280;67994;59.334;13.528;2023-05-10T03:24:06;101200.0;;;8.9;58.1
78679;BME280;67994;59.334;13.528;2023-05-10T03:25:04;101200.0;;;9.0;58.1
78679;BME280;67994;59.334;13.528;2023-05-10T03:26:01;101200.0;;;9.0;57.9
78679;BME280;67994;59.334;13.528;2023-05-10T03:27:01;101200.0;;;9.1;57.8
78679;BME280;67994;59.334;13.528;2023-05-10T03:28:01;101200.0;;;9.2;57.8
78679;BME280;67994;59.334;13.528;2023-05-10T03:29:01;101200.0;;;9.0;58.3
78679;BME280;67994;59.334;13.528;2023-05-10T03:30:01;101200.0;;;9.1;58.0
78679;BME280;67994;59.334;13.528;2023-05-10T03:31:00;101200.0;;;9.1;58.3
78679;BME280;67994;59.334;13.528;2023-05-10T03:32:00;101200.0;;;9.1;58.2
78679;BME280;67994;59.334;13.528;2023-05-10T03:33:04;101200.0;;;9.2;58.2
78679;BME280;67994;59.334;13.528;2023-05-10T03:34:00;101200.0;;;9.2;58.2
78679;BME280;67994;59.334;13.528;2023-05-10T03:35:00;101200.0;;;9.2;58.4
78679;BME280;67994;59.334;13.528;2023-05-10T03:36:00;101200.0;;;9.3;57.9
78679;BME280;67994;59.334;13.528;2023-05-10T03:37:00;101200.0;;;9.3;58.2
78679;BME280;67994;59.334;13.528;2023-05-10T03:38:00;101200.0;;;9.4;58.1
78679;BME280;67994;59.334;13.528;2023-05-10T03:39:00;101200.0;;;9.4;58.0
78679;BME280;67994;59.334;13.528;2023-05-10T03:40:00;101200.0;;;9.4;58.2
78679;BME280;67994;59.334;13.528;2023-05-10T03:41:00;101200.0;;;9.4;58.2
78679;BME280;67994;59.334;13.528;2023-05-10T03:42:00;101200.0;;;9.4;58.2
78679;BME280;67994;59.334;13.528;2023-05-10T03:43:00;101200.0;;;9.5;57.8
78679;BME280;67994;59.334;13.528;2023-05-10T03:44:00;101200.0;;;9.4;58.0
78679;BME280;67994;59.334;13.528;2023-05-10T03:45:00;101200.0;;;9.5;57.8
78679;BME280;67994;59.334;13.528;2023-05-10T03:46:01;101200.0;;;9.5;57.4
78679;BME280;67994;59.334;13.528;2023-05-10T03:47:00;101200.0;;;9.5;57.6
78679;BME280;67994;59.334;13.528;2023-05-10T03:48:00;101200.0;;;9.5;57.9
78679;BME280;67994;59.334;13.528;2023-05-10T03:49:00;101200.0;;;9.5;57.9
78679;BME280;67994;59.334;13.528;2023-05-10T03:50:00;101200.0;;;9.4;58.2
78679;BME280;67994;59.334;13.528;2023-05-10T03:51:00;101200.0;;;9.4;58.3
78679;BME280;67994;59.334;13.528;2023-05-10T03:52:00;101200.0;;;9.5;58.0
78679;BME280;67994;59.334;13.528;2023-05-10T03:53:00;101200.0;;;9.5;57.8
78679;BME280;67994;59.334;13.528;2023-05-10T03:54:00;101200.0;;;9.7;57.7
78679;BME280;67994;59.334;13.528;2023-05-10T03:55:00;101200.0;;;9.9;57.0
78679;BME280;67994;59.334;13.528;2023-05-10T03:56:00;101200.0;;;9.7;57.3
78679;BME280;67994;59.334;13.528;2023-05-10T03:57:00;101200.0;;;9.8;56.8
78679;BME280;67994;59.334;13.528;2023-05-10T03:58:00;101200.0;;;9.8;57.0
78679;BME280;67994;59.334;13.528;2023-05-10T03:59:00;101200.0;;;9.7;57.3
78679;BME280;67994;59.334;13.528;2023-05-10T04:00:00;101200.0;;;10.0;57.3
78679;BME280;67994;59.334;13.528;2023-05-10T04:01:00;101200.0;;;10.1;56.5
78679;BME280;67994;59.334;13.528;2023-05-10T04:02:00;101200.0;;;10.1;56.7
78679;BME280;67994;59.334;13.528;2023-05-10T04:03:00;101200.0;;;10.3;56.2
78679;BME280;67994;59.334;13.528;2023-05-10T04:04:00;101200.0;;;10.3;56.2
78679;BME280;67994;59.334;13.528;2023-05-10T04:05:00;101200.0;;;10.2;56.4
78679;BME280;67994;59.334;13.528;2023-05-10T04:06:01;101200.0;;;10.3;56.1
78679;BME280;67994;59.334;13.528;2023-05-10T04:07:00;101200.0;;;10.3;56.0
78679;BME280;67994;59.334;13.528;2023-05-10T04:08:00;101200.0;;;10.5;55.7
78679;BME280;67994;59.334;13.528;2023-05-10T04:09:00;101200.0;;;10.4;56.0
78679;BME280;67994;59.334;13.528;2023-05-10T04:10:00;101200.0;;;10.4;56.0
78679;BME280;67994;59.334;13.528;2023-05-10T04:11:08;101200.0;;;10.3;56.1
78679;BME280;67994;59.334;13.528;2023-05-10T04:12:00;101200.0;;;10.4;56.0
78679;BME280;67994;59.334;13.528;2023-05-10T04:13:00;101200.0;;;10.3;55.8
78679;BME280;67994;59.334;13.528;2023-05-10T04:14:00;101200.0;;;10.2;56.1
78679;BME280;67994;59.334;13.528;2023-05-10T04:15:00;101200.0;;;10.3;55.7
78679;BME280;67994;59.334;13.528;2023-05-10T04:16:00;101200.0;;;10.2;56.0
78679;BME280;67994;59.334;13.528;2023-05-10T04:17:00;101200.0;;;10.3;55.7
78679;BME280;67994;59.334;13.528;2023-05-10T04:18:00;101200.0;;;10.3;56.0
78679;BME280;67994;59.334;13.528;2023-05-10T04:19:00;101200.0;;;10.3;55.8
78679;BME280;67994;59.334;13.528;2023-05-10T04:20:00;101200.0;;;10.3;55.8
78679;BME280;67994;59.334;13.528;2023-05-10T04:21:00;101200.0;;;10.2;56.3
78679;BME280;67994;59.334;13.528;2023-05-10T04:22:02;101200.0;;;10.3;56.0
78679;BME280;67994;59.334;13.528;2023-05-10T04:23:00;101200.0;;;10.3;56.1
78679;BME280;67994;59.334;13.528;2023-05-10T04:24:00;101200.0;;;10.4;55.8
78679;BME280;67994;59.334;13.528;2023-05-10T04:25:00;101200.0;;;10.4;55.9
78679;BME280;67994;59.334;13.528;2023-05-10T04:26:00;101200.0;;;10.4;56.1
78679;BME280;67994;59.334;13.528;2023-05-10T04:27:00;101200.0;;;10.4;56.1
78679;BME280;67994;59.334;13.528;2023-05-10T04:28:00;101200.0;;;10.5;55.8
78679;BME280;67994;59.334;13.528;2023-05-10T04:29:00;101200.0;;;10.6;55.7
78679;BME280;67994;59.334;13.528;2023-05-10T04:30:00;101200.0;;;10.7;55.4
78679;BME280;67994;59.334;13.528;2023-05-10T04:31:00;101200.0;;;10.7;55.3
78679;BME280;67994;59.334;13.528;2023-05-10T04:32:00;101200.0;;;10.9;54.5
78679;BME280;67994;59.334;13.528;2023-05-10T04:33:00;101200.0;;;11.0;54.6
78679;BME280;67994;59.334;13.528;2023-05-10T04:34:00;101200.0;;;10.9;54.7
78679;BME280;67994;59.334;13.528;2023-05-10T04:35:00;101200.0;;;11.0;54.4
78679;BME280;67994;59.334;13.528;2023-05-10T04:36:00;101200.0;;;11.1;54.3
78679;BME280;67994;59.334;13.528;2023-05-10T04:37:00;101200.0;;;11.2;53.9
78679;BME280;67994;59.334;13.528;2023-05-10T04:38:00;101200.0;;;11.4;53.5
78679;BME280;67994;59.334;13.528;2023-05-10T04:39:00;101200.0;;;11.2;53.9
78679;BME280;67994;59.334;13.528;2023-05-10T04:40:00;101200.0;;;11.2;53.9
78679;BME280;67994;59.334;13.528;2023-05-10T04:41:04;101200.0;;;11.4;53.7
78679;BME280;67994;59.334;13.528;2023-05-10T04:42:00;101200.0;;;11.3;53.8
78679;BME280;67994;59.334;13.528;2023-05-10T04:43:00;101200.0;;;11.3;53.7
78679;BME280;67994;59.334;13.528;2023-05-10T04:44:00;101200.0;;;11.2;53.9
78679;BME280;67994;59.334;13.528;2023-05-10T04:45:00;101200.0;;;11.3;53.8
78679;BME280;67994;59.334;13.528;2023-05-10T04:46:00;101200.0;;;11.4;53.6
78679;BME280;67994;59.334;13.528;2023-05-10T04:47:00;101200.0;;;11.4;53.7
78679;BME280;67994;59.334;13.528;2023-05-10T04:48:00;101200.0;;;11.3;53.4
78679;BME280;67994;59.334;13.528;2023-05-10T04:49:00;101200.0;;;11.3;53.5
78679;BME280;67994;59.334;13.528;2023-05-10T04:50:00;101200.0;;;11.5;53.1
78679;BME280;67994;59.334;13.528;2023-05-10T04:51:00;101200.0;;;11.5;53.1
78679;BME280;67994;59.334;13.528;2023-05-10T04:52:00;101200.0;;;11.5;53.1
78679;BME280;67994;59.334;13.528;2023-05-10T04:53:00;101200.0;;;11.2;53.6
78679;BME280;67994;59.334;13.528;2023-05-10T04:54:00;101200.0;;;11.3;53.3
78679;BME280;67994;59.334;13.528;2023-05-10T04:55:00;101200.0;;;11.5;53.1
78679;BME280;67994;59.334;13.528;2023-05-10T04:56:00;101200.0;;;11.5;53.2
78679;BME280;67994;59.334;13.528;2023-05-10T04:57:00;101200.0;;;11.5;53.2
78679;BME280;67994;59.334;13.528;2023-05-10T04:58:00;101200.0;;;11.5;53.0
78679;BME280;67994;59.334;13.528;2023-05-10T04:59:00;101200.0;;;11.5;52.9
78679;BME280;67994;59.334;13.528;2023-05-10T05:00:00;101200.0;;;11.5;52.9
78679;BME280;67994;59.334;13.528;2023-05-10T05:01:05;101200.0;;;11.5;52.8
78679;BME280;67994;59.334;13.528;2023-05-10T05:02:00;101200.0;;;11.4;53.1
78679;BME280;67994;59.334;13.528;2023-05-10T05:03:00;101200.0;;;11.6;52.6
78679;BME280;67994;59.334;13.528;2023-05-10T05:04:00;101200.0;;;11.7;52.4
78679;BME280;67994;59.334;13.528;2023-05-10T05:05:00;101200.0;;;11.8;52.5
78679;BME280;67994;59.334;13.528;2023-05-10T05:06:00;101200.0;;;11.6;52.7
78679;BME280;67994;59.334;13.528;2023-05-10T05:07:00;101200.0;;;11.5;52.7
78679;BME280;67994;59.334;13.528;2023-05-10T05:08:00;101200.0;;;11.8;52.3
78679;BME280;67994;59.334;13.528;2023-05-10T05:09:00;101200.0;;;11.8;52.3
78679;BME280;67994;59.334;13.528;2023-05-10T05:10:00;101200.0;;;12.0;52.0
78679;BME280;67994;59.334;13.528;2023-05-10T05:11:00;101200.0;;;12.0;52.0
78679;BME280;67994;59.334;13.528;2023-05-10T05:12:00;101200.0;;;11.6;52.5
78679;BME280;67994;59.334;13.528;2023-05-10T05:13:00;101200.0;;;11.7;52.3
78679;BME280;67994;59.334;13.528;2023-05-10T05:14:00;101200.0;;;11.9;52.1
78679;BME280;67994;59.334;13.528;2023-05-10T05:15:00;101200.0;;;11.9;51.8
78679;BME280;67994;59.334;13.528;2023-05-10T05:16:00;101200.0;;;11.9;51.7
78679;BME280;67994;59.334;13.528;2023-05-10T05:17:00;101200.0;;;11.8;52.0
78679;BME280;67994;59.334;13.528;2023-05-10T05:18:00;101200.0;;;11.8;52.0
78679;BME280;67994;59.334;13.528;2023-05-10T05:19:00;101200.0;;;11.8;51.9
78679;BME280;67994;59.334;13.528;2023-05-10T05:20:00;101200.0;;;12.0;51.6
78679;BME280;67994;59.334;13.528;2023-05-10T05:21:00;101200.0;;;12.0;51.6
78679;BME280;67994;59.334;13.528;2023-05-10T05:22:00;101200.0;;;12.0;51.6
78679;BME280;67994;59.334;13.528;2023-05-10T05:23:00;101200.0;;;11.9;51.6
78679;BME280;67994;59.334;13.528;2023-05-10T05:24:00;101200.0;;;12.1;51.3
78679;BME280;67994;59.334;13.528;2023-05-10T05:25:00;101200.0;;;12.2;51.0
78679;BME280;67994;59.334;13.528;2023-05-10T05:26:00;101200.0;;;12.3;51.1